< Typhoon 202216 2022 Season Typhoon 202218 >
Typhoon 202217 (KULAP)
General InformationDetailed Track InformationTrack Information on Google MapsForecast History on Google MapsAccess Analytics MapList of All Images || NewsDisaster Info.JMA Disaster Info. XMLWeblogTrackbackTyphoon FrontTwiphoonTyphoon Now!Typhoon ImaginationResourceGoogle EarthGE AnimationAtom FeedGeoJSON
Detalied Best Track Wind (Time Zone = UTC)
Year Month Day Hour Lat. Long. Wind (kt) Gust (kt) Direc. of Major Storm Axis Radius of Major Storm Axis (nm) Radius of Minor Storm Axis (nm) Direc. of Major Gale Axis Radius of Major Gale Axis (nm) Radius of Minor Gale Axis (nm) Image
2022 9 25 06 19.9 146.4 30 45 - - - - - - Image
2022 9 25 09 20.2 145.8 30 45 - - - - - - Image
2022 9 25 12 21.0 145.2 30 45 - - - - - - Image
2022 9 25 15 21.3 144.3 30 45 - - - - - - Image
2022 9 25 18 22.1 144.3 30 45 - - - - - - Image
2022 9 25 21 22.9 144.2 30 45 - - - - - - Image
2022 9 26 00 23.6 143.8 35 50 - - - E 150 90 Image
2022 9 26 03 23.6 143.3 35 50 - - - E 210 60 Image
2022 9 26 06 24.2 143.2 35 50 - - - E 210 60 Image
2022 9 26 09 25.0 143.2 35 50 - - - E 210 60 Image
2022 9 26 12 25.9 142.4 40 60 - - - E 180 120 Image
2022 9 26 15 26.2 141.9 40 60 - - - E 180 120 Image
2022 9 26 18 27.0 142.0 50 70 - - - E 180 120 Image
2022 9 26 21 27.6 141.8 50 70 - - - E 180 120 Image
2022 9 27 00 27.9 141.8 50 70 - - - E 180 120 Image
2022 9 27 03 28.1 141.8 50 70 - - - E 180 120 Image
2022 9 27 06 28.6 141.9 50 70 - - - E 180 120 Image
2022 9 27 09 29.2 142.2 50 70 - - - E 180 120 Image
2022 9 27 12 29.7 142.7 50 70 - - - E 180 120 Image
2022 9 27 15 30.1 143.3 50 70 - - - E 180 120 Image
2022 9 27 18 30.7 144.3 55 80 symmetric 30 30 symmetric 180 180 Image
2022 9 27 21 31.5 145.0 55 80 symmetric 30 30 symmetric 180 180 Image
2022 9 28 00 32.1 145.9 55 80 symmetric 30 30 symmetric 180 180 Image
2022 9 28 03 32.6 146.1 55 80 SE 80 60 SE 210 150 Image
2022 9 28 06 33.1 146.9 55 80 SE 80 60 SE 210 150 Image
2022 9 28 09 33.8 149.1 55 80 SE 80 60 SE 210 150 Image
2022 9 28 12 34.5 150.3 55 80 SE 80 60 SE 210 150 Image
2022 9 28 15 35.5 151.8 55 80 SE 80 60 SE 210 150 Image
2022 9 28 18 36.5 153.0 60 85 symmetric 80 80 symmetric 210 210 Image
2022 9 28 21 37.4 154.3 60 85 symmetric 80 80 symmetric 210 210 Image
2022 9 29 00 38.6 155.8 60 85 symmetric 80 80 S 300 240 Image
2022 9 29 03 39.8 157.1 60 85 symmetric 80 80 S 300 240 Image
2022 9 29 06 42.0 159.0 65 0 - - - symmetric 600 600 Image
Japan Meteorological Agency Best Track Data | Correction Date : 2022-09-29
< Typhoon 202216 2022 Season Typhoon 202218 >

Help